createdAt,value
2022-12-05T00:01:40.351Z,13.13
2022-12-05T00:04:12.052Z,12.07
2022-12-05T00:06:41.822Z,11.15
2022-12-05T00:09:12.368Z,11.90
2022-12-05T00:11:44.068Z,12.98
2022-12-05T00:14:13.421Z,24.00
2022-12-05T00:16:43.720Z,16.52
2022-12-05T00:19:14.672Z,16.17
2022-12-05T00:21:42.890Z,16.23
2022-12-05T00:24:14.793Z,15.25
2022-12-05T00:26:43.567Z,15.05
2022-12-05T00:29:12.151Z,14.35
2022-12-05T00:31:40.562Z,13.30
2022-12-05T00:34:08.150Z,11.95
2022-12-05T00:36:37.295Z,12.53
2022-12-05T00:39:10.225Z,13.90
2022-12-05T00:41:38.484Z,16.93
2022-12-05T00:44:06.341Z,12.68
2022-12-05T00:46:35.681Z,16.67
2022-12-05T00:49:05.874Z,20.40
2022-12-05T00:51:40.416Z,20.37
2022-12-05T00:54:13.238Z,19.67
2022-12-05T00:56:41.995Z,17.85
2022-12-05T00:59:16.894Z,15.88
2022-12-05T01:01:46.646Z,13.28
2022-12-05T01:04:21.122Z,13.62
2022-12-05T01:06:50.929Z,18.92
2022-12-05T01:09:20.767Z,21.97
2022-12-05T01:11:49.684Z,18.20
2022-12-05T01:14:20.301Z,16.10
2022-12-05T01:16:50.541Z,14.13
2022-12-05T01:19:23.642Z,14.00
2022-12-05T01:21:52.717Z,11.88
2022-12-05T01:24:24.211Z,11.35
2022-12-05T01:26:53.739Z,10.80
2022-12-05T01:29:24.149Z,9.00
2022-12-05T01:31:55.342Z,8.35
2022-12-05T01:34:25.825Z,9.63
2022-12-05T01:36:53.835Z,9.20
2022-12-05T01:39:24.981Z,8.83
2022-12-05T01:41:54.259Z,7.97
2022-12-05T01:44:31.267Z,7.42
2022-12-05T01:47:02.718Z,8.08
2022-12-05T01:49:38.068Z,10.58
2022-12-05T01:52:23.122Z,10.65
2022-12-05T01:54:55.754Z,9.90
2022-12-05T01:57:25.088Z,9.00
2022-12-05T01:59:59.096Z,8.40
2022-12-05T02:05:22.158Z,7.17
2022-12-05T02:07:49.924Z,8.25
2022-12-05T02:10:18.662Z,8.93
2022-12-05T02:12:46.945Z,7.75
2022-12-05T02:15:37.689Z,6.75
2022-12-05T02:18:52.217Z,7.90
2022-12-05T02:21:47.567Z,9.83
2022-12-05T02:25:12.500Z,8.88
2022-12-05T02:28:02.386Z,8.53
2022-12-05T02:30:40.162Z,7.12
2022-12-05T02:33:54.311Z,6.15
2022-12-05T02:36:35.948Z,6.35
2022-12-05T02:39:23.579Z,6.25
2022-12-05T02:42:02.239Z,7.00
2022-12-05T02:44:41.283Z,10.10
2022-12-05T02:47:09.938Z,11.95
2022-12-05T02:49:39.751Z,15.90
2022-12-05T02:52:11.356Z,19.85
2022-12-05T02:54:42.642Z,17.20
2022-12-05T02:57:12.187Z,9.30
2022-12-05T02:59:40.037Z,8.15
2022-12-05T03:02:33.649Z,6.35
2022-12-05T03:07:48.912Z,6.65
2022-12-05T03:10:21.310Z,6.03
2022-12-05T03:12:56.122Z,6.97
2022-12-05T03:15:32.096Z,6.28
2022-12-05T03:18:12.631Z,7.62
2022-12-05T03:20:47.683Z,5.15
2022-12-05T03:23:31.275Z,5.75
2022-12-05T03:26:33.383Z,6.95
2022-12-05T03:29:12.222Z,7.50
2022-12-05T03:31:59.979Z,7.75
2022-12-05T03:34:54.061Z,8.03
2022-12-05T03:40:12.424Z,7.95
2022-12-05T03:42:45.316Z,8.48
2022-12-05T03:45:18.612Z,11.68
2022-12-05T03:47:54.587Z,15.03
2022-12-05T03:50:28.722Z,14.28
2022-12-05T03:55:35.570Z,17.17
2022-12-05T03:58:11.955Z,11.48
2022-12-05T04:00:43.863Z,9.85
2022-12-05T04:03:20.033Z,9.80
2022-12-05T04:06:01.350Z,9.65
2022-12-05T04:08:37.039Z,9.78
2022-12-05T04:11:19.083Z,11.03
2022-12-05T04:13:54.075Z,10.20
2022-12-05T04:16:48.108Z,9.95
2022-12-05T04:19:50.317Z,10.82
2022-12-05T04:22:19.853Z,9.73
2022-12-05T04:25:07.942Z,10.60
2022-12-05T04:28:03.691Z,10.95
2022-12-05T04:31:11.443Z,8.98
2022-12-05T04:33:59.327Z,12.88
2022-12-05T04:36:43.524Z,13.93
2022-12-05T04:39:25.538Z,16.02
2022-12-05T04:42:04.300Z,15.05
2022-12-05T04:44:51.671Z,15.28
2022-12-05T04:47:22.613Z,16.82
2022-12-05T04:49:54.211Z,18.12
2022-12-05T04:52:22.465Z,18.85
2022-12-05T04:54:58.552Z,22.52
2022-12-05T04:57:31.017Z,22.00
2022-12-05T04:59:58.786Z,21.68
2022-12-05T05:02:34.888Z,23.55
2022-12-05T05:05:10.934Z,20.23
2022-12-05T05:07:50.649Z,22.52
2022-12-05T05:10:33.039Z,21.93
2022-12-05T05:13:00.528Z,26.52
2022-12-05T05:15:28.218Z,31.27
2022-12-05T05:17:55.777Z,28.92
2022-12-05T05:20:23.468Z,28.55
2022-12-05T05:22:54.353Z,31.85
2022-12-05T05:25:24.938Z,34.78
2022-12-05T05:27:55.651Z,36.15
2022-12-05T05:30:24.715Z,33.70
2022-12-05T05:32:54.024Z,30.90
2022-12-05T05:35:22.161Z,29.07
2022-12-05T05:37:49.764Z,29.77
2022-12-05T05:40:17.904Z,25.72
2022-12-05T05:42:48.224Z,19.95
2022-12-05T05:45:16.955Z,15.32
2022-12-05T05:47:45.056Z,15.03
2022-12-05T05:50:17.813Z,14.47
2022-12-05T05:52:42.001Z,20.02
2022-12-05T05:55:10.268Z,24.20
2022-12-05T05:57:37.734Z,27.32
2022-12-05T06:00:07.743Z,23.92
2022-12-05T06:02:36.187Z,22.32
2022-12-05T06:05:05.232Z,25.72
2022-12-05T06:07:32.671Z,32.17
2022-12-05T06:10:00.717Z,34.30
2022-12-05T06:12:28.772Z,25.30
2022-12-05T06:14:56.610Z,24.90
2022-12-05T06:17:24.192Z,22.52
2022-12-05T06:19:51.823Z,56.30
2022-12-05T06:22:19.148Z,51.68
2022-12-05T06:24:47.040Z,35.83
2022-12-05T06:27:14.624Z,26.80
2022-12-05T06:29:42.651Z,26.40
2022-12-05T06:32:10.101Z,26.85
2022-12-05T06:34:37.711Z,25.48
2022-12-05T06:37:05.365Z,21.52
2022-12-05T06:39:33.199Z,18.35
2022-12-05T06:42:00.944Z,17.27
2022-12-05T06:44:28.777Z,18.05
2022-12-05T06:46:56.197Z,26.87
2022-12-05T06:49:30.750Z,21.25
2022-12-05T06:51:55.557Z,26.48
2022-12-05T06:54:22.953Z,30.20
2022-12-05T06:56:50.680Z,30.45
2022-12-05T06:59:18.124Z,50.50
2022-12-05T07:01:46.543Z,45.65
2022-12-05T07:04:23.004Z,44.10
2022-12-05T07:06:51.829Z,40.60
2022-12-05T07:09:25.031Z,37.67
2022-12-05T07:11:52.538Z,30.68
2022-12-05T07:16:51.134Z,21.68
2022-12-05T07:19:18.641Z,20.35
2022-12-05T07:21:46.015Z,23.00
2022-12-05T07:24:13.568Z,23.80
2022-12-05T07:26:41.228Z,27.50
2022-12-05T07:29:10.347Z,24.45
2022-12-05T07:31:38.057Z,25.50
2022-12-05T07:34:05.639Z,29.75
2022-12-05T07:36:32.972Z,38.50
2022-12-05T07:39:00.639Z,44.90
2022-12-05T07:41:30.729Z,35.65
2022-12-05T07:44:00.060Z,25.57
2022-12-05T07:46:29.060Z,25.82
2022-12-05T07:48:57.604Z,24.55
2022-12-05T07:51:25.259Z,24.92
2022-12-05T07:53:52.937Z,29.20
2022-12-05T07:56:21.272Z,30.57
2022-12-05T07:58:50.209Z,27.48
2022-12-05T08:01:22.685Z,27.10
2022-12-05T08:03:52.865Z,26.87
2022-12-05T08:06:24.352Z,29.35
2022-12-05T08:08:54.066Z,28.27
2022-12-05T08:11:26.136Z,24.12
2022-12-05T08:13:54.310Z,23.18
2022-12-05T08:16:25.805Z,22.40
2022-12-05T08:19:05.453Z,23.50
2022-12-05T08:21:34.179Z,22.75
2022-12-05T08:24:07.870Z,22.87
2022-12-05T08:26:36.645Z,20.88
2022-12-05T08:29:11.188Z,20.70
2022-12-05T08:31:48.504Z,20.10
2022-12-05T08:34:19.517Z,20.88
2022-12-05T08:36:47.712Z,19.82
2022-12-05T08:39:18.472Z,20.72
2022-12-05T08:41:47.708Z,19.37
2022-12-05T08:44:16.582Z,28.65
2022-12-05T08:46:48.144Z,23.07
2022-12-05T08:49:17.306Z,27.45
2022-12-05T08:51:45.523Z,29.45
2022-12-05T08:54:13.165Z,32.03
2022-12-05T08:56:41.376Z,24.85
2022-12-05T08:59:08.761Z,21.42
2022-12-05T09:01:38.253Z,23.20
2022-12-05T09:04:07.345Z,24.15
2022-12-05T09:06:36.244Z,20.00
2022-12-05T09:09:07.851Z,19.37
2022-12-05T09:11:41.904Z,17.35
2022-12-05T09:14:09.531Z,15.45
2022-12-05T09:16:39.420Z,17.80
2022-12-05T09:19:20.350Z,17.17
2022-12-05T09:21:48.073Z,17.32
2022-12-05T09:24:15.812Z,16.07
2022-12-05T09:26:44.942Z,16.62
2022-12-05T09:29:17.053Z,16.85
2022-12-05T09:31:45.644Z,17.32
2022-12-05T09:34:14.398Z,17.25
2022-12-05T09:36:43.083Z,17.92
2022-12-05T09:39:11.182Z,19.32
2022-12-05T09:42:31.536Z,18.32
2022-12-05T09:45:19.788Z,17.42
2022-12-05T09:48:12.105Z,18.05
2022-12-05T09:51:01.539Z,16.70
2022-12-05T09:53:33.884Z,16.27
2022-12-05T09:56:15.226Z,16.75
2022-12-05T09:58:47.202Z,12.10
2022-12-05T10:01:32.546Z,14.07
2022-12-05T10:04:17.767Z,12.82
2022-12-05T10:07:11.973Z,12.30
2022-12-05T10:10:20.519Z,15.25
2022-12-05T10:13:21.181Z,14.23
2022-12-05T10:15:57.260Z,15.72
2022-12-05T10:18:55.571Z,15.28
2022-12-05T10:21:30.863Z,15.23
2022-12-05T10:24:02.525Z,15.53
2022-12-05T10:26:37.060Z,15.85
2022-12-05T10:29:13.042Z,14.18
2022-12-05T10:31:42.871Z,12.20
2022-12-05T10:34:25.452Z,11.70
2022-12-05T10:37:01.376Z,11.25
2022-12-05T10:39:28.936Z,11.25
2022-12-05T10:41:56.571Z,10.98
2022-12-05T10:44:24.861Z,10.35
2022-12-05T10:46:52.630Z,10.20
2022-12-05T10:49:21.745Z,10.68
2022-12-05T10:51:50.317Z,11.28
2022-12-05T10:54:28.157Z,13.30
2022-12-05T10:56:55.974Z,11.28
2022-12-05T10:59:28.025Z,13.80
2022-12-05T11:01:58.649Z,14.15
2022-12-05T11:04:43.593Z,14.65
2022-12-05T11:07:31.974Z,13.58
2022-12-05T11:10:04.012Z,14.23
2022-12-05T11:12:38.499Z,13.78
2022-12-05T11:15:24.906Z,15.90
2022-12-05T11:17:55.584Z,14.93
2022-12-05T11:20:28.474Z,14.83
2022-12-05T11:22:58.662Z,15.53
2022-12-05T11:25:31.437Z,15.48
2022-12-05T11:28:15.925Z,15.95
2022-12-05T11:31:16.187Z,14.98
2022-12-05T11:33:49.321Z,15.10
2022-12-05T11:36:23.876Z,15.63
2022-12-05T11:38:52.349Z,14.50
2022-12-05T11:41:40.343Z,14.05
2022-12-05T11:44:25.637Z,12.93
2022-12-05T11:47:33.839Z,13.22
2022-12-05T11:50:36.918Z,10.58
2022-12-05T11:53:19.031Z,9.85
2022-12-05T11:56:04.052Z,11.57
2022-12-05T11:59:02.804Z,11.03
2022-12-05T12:02:09.251Z,11.93
2022-12-05T12:05:06.735Z,16.12
2022-12-05T12:08:14.811Z,16.35
2022-12-05T12:11:24.565Z,16.52
2022-12-05T12:14:09.806Z,17.95
2022-12-05T12:17:00.681Z,16.15
2022-12-05T12:19:57.240Z,17.55
2022-12-05T12:22:36.135Z,12.82
2022-12-05T12:25:22.372Z,13.43
2022-12-05T12:28:10.401Z,14.45
2022-12-05T12:31:03.453Z,14.53
2022-12-05T12:33:45.790Z,17.73
2022-12-05T12:36:40.003Z,19.25
2022-12-05T12:39:29.913Z,15.08
2022-12-05T12:42:23.822Z,12.55
2022-12-05T12:45:06.082Z,11.38
2022-12-05T12:48:03.101Z,12.13
2022-12-05T12:50:36.599Z,11.78
2022-12-05T12:53:32.729Z,10.95
2022-12-05T12:56:11.459Z,12.37
2022-12-05T12:59:23.230Z,13.18
2022-12-05T13:02:25.471Z,11.53
2022-12-05T13:05:23.093Z,11.78
2022-12-05T13:08:19.142Z,13.85
2022-12-05T13:10:48.908Z,22.70
2022-12-05T13:13:27.458Z,25.77
2022-12-05T13:16:00.261Z,25.00
2022-12-05T13:18:28.388Z,22.90
2022-12-05T13:21:00.865Z,22.55
2022-12-05T13:23:32.944Z,22.30
2022-12-05T13:26:04.966Z,22.17
2022-12-05T13:28:55.605Z,23.02
2022-12-05T13:31:42.055Z,22.25
2022-12-05T13:34:34.698Z,19.77
2022-12-05T13:37:31.770Z,20.97
2022-12-05T13:40:17.861Z,21.45
2022-12-05T13:42:48.071Z,23.10
2022-12-05T13:45:20.064Z,25.40
2022-12-05T13:47:56.597Z,25.13
2022-12-05T13:50:45.376Z,28.10
2022-12-05T13:53:39.238Z,27.55
2022-12-05T13:56:20.965Z,29.60
2022-12-05T13:58:57.254Z,28.65
2022-12-05T14:01:48.973Z,28.60
2022-12-05T14:04:47.527Z,22.27
2022-12-05T14:07:36.439Z,21.35
2022-12-05T14:10:05.531Z,20.85
2022-12-05T14:12:53.568Z,19.20
2022-12-05T14:15:38.234Z,17.62
2022-12-05T14:18:20.188Z,19.73
2022-12-05T14:21:05.231Z,22.50
2022-12-05T14:24:10.629Z,25.92
2022-12-05T14:26:59.617Z,24.07
2022-12-05T14:30:08.839Z,25.90
2022-12-05T14:32:41.704Z,29.82
2022-12-05T14:35:33.667Z,31.33
2022-12-05T14:38:06.457Z,30.95
2022-12-05T14:40:37.956Z,37.13
2022-12-05T14:43:27.838Z,43.23
2022-12-05T14:46:03.378Z,41.13
2022-12-05T14:48:47.297Z,44.18
2022-12-05T14:51:35.533Z,66.35
2022-12-05T14:54:16.394Z,76.20
2022-12-05T14:56:54.952Z,73.90
2022-12-05T14:59:51.761Z,76.07
2022-12-05T15:02:27.151Z,73.40
2022-12-05T15:05:27.137Z,69.05
2022-12-05T15:07:58.861Z,64.67
2022-12-05T15:10:42.515Z,70.32
2022-12-05T15:13:17.373Z,65.17
2022-12-05T15:16:05.802Z,72.95
2022-12-05T15:18:57.305Z,69.15
2022-12-05T15:21:43.162Z,70.05
2022-12-05T15:24:17.189Z,72.50
2022-12-05T15:26:52.798Z,83.27
2022-12-05T15:29:25.924Z,90.12
2022-12-05T15:32:19.722Z,74.82
2022-12-05T15:35:09.431Z,69.20
2022-12-05T15:37:57.127Z,69.32
2022-12-05T15:40:25.698Z,53.40
2022-12-05T15:42:56.077Z,57.50
2022-12-05T15:45:29.473Z,54.35
2022-12-05T15:48:11.336Z,51.33
2022-12-05T15:50:49.296Z,49.30
2022-12-05T15:53:46.422Z,64.35
2022-12-05T15:56:21.898Z,50.28
2022-12-05T15:59:18.845Z,61.75
2022-12-05T16:01:52.177Z,83.40
2022-12-05T16:04:29.408Z,92.90
2022-12-05T16:06:56.292Z,101.60
2022-12-05T16:09:31.393Z,103.42
2022-12-05T16:12:28.868Z,100.65
2022-12-05T16:15:01.945Z,112.10
2022-12-05T16:17:40.106Z,111.05
2022-12-05T16:20:31.536Z,111.28
2022-12-05T16:23:07.702Z,113.17
2022-12-05T16:25:36.970Z,107.80
2022-12-05T16:28:16.164Z,101.10
2022-12-05T16:31:02.047Z,92.00
2022-12-05T16:33:31.669Z,89.42
2022-12-05T16:36:13.607Z,94.10
2022-12-05T16:38:42.679Z,82.37
2022-12-05T16:41:12.006Z,83.82
2022-12-05T16:43:44.812Z,87.17
2022-12-05T16:46:19.829Z,78.50
2022-12-05T16:49:08.073Z,78.02
2022-12-05T16:51:45.335Z,66.65
2022-12-05T16:54:12.765Z,59.53
2022-12-05T16:56:41.633Z,57.55
2022-12-05T16:59:14.131Z,62.25
2022-12-05T17:01:41.837Z,86.60
2022-12-05T17:04:11.286Z,82.08
2022-12-05T17:06:39.267Z,82.82
2022-12-05T17:09:06.848Z,93.82
2022-12-05T17:11:38.341Z,82.42
2022-12-05T17:14:10.762Z,78.90
2022-12-05T17:16:38.631Z,74.87
2022-12-05T17:19:06.379Z,69.65
2022-12-05T17:21:35.197Z,65.20
2022-12-05T17:24:03.335Z,66.53
2022-12-05T17:26:31.478Z,64.10
2022-12-05T17:28:58.955Z,60.15
2022-12-05T17:31:26.545Z,59.42
2022-12-05T17:33:56.611Z,59.60
2022-12-05T17:36:24.144Z,61.23
2022-12-05T17:38:51.940Z,71.50
2022-12-05T17:41:23.295Z,72.95
2022-12-05T17:43:52.359Z,78.80
2022-12-05T17:46:23.234Z,89.77
2022-12-05T17:48:51.950Z,83.45
2022-12-05T17:51:20.495Z,85.28
2022-12-05T17:53:48.571Z,97.62
2022-12-05T17:56:16.689Z,93.47
2022-12-05T17:58:44.768Z,99.05
2022-12-05T18:01:19.067Z,108.65
2022-12-05T18:03:48.328Z,112.65
2022-12-05T18:06:16.955Z,112.25
2022-12-05T18:08:45.310Z,118.47
2022-12-05T18:11:14.318Z,119.53
2022-12-05T18:13:42.166Z,122.98
2022-12-05T18:16:10.566Z,111.25
2022-12-05T18:18:39.025Z,118.65
2022-12-05T18:21:11.109Z,124.25
2022-12-05T18:23:40.188Z,117.00
2022-12-05T18:26:10.322Z,104.50
2022-12-05T18:28:41.203Z,104.60
2022-12-05T18:31:14.819Z,106.40
2022-12-05T18:33:44.504Z,105.78
2022-12-05T18:36:17.255Z,97.55
2022-12-05T18:38:54.973Z,97.67
2022-12-05T18:41:25.939Z,106.35
2022-12-05T18:43:54.379Z,97.22
2022-12-05T18:46:22.161Z,90.62
2022-12-05T18:48:49.713Z,87.85
2022-12-05T18:51:23.474Z,92.85
2022-12-05T18:53:53.840Z,85.80
2022-12-05T18:56:26.549Z,89.07
2022-12-05T18:59:04.235Z,88.92
2022-12-05T19:01:35.542Z,80.57
2022-12-05T19:04:05.923Z,77.45
2022-12-05T19:06:39.312Z,73.95
2022-12-05T19:09:11.942Z,67.47
2022-12-05T19:11:47.704Z,63.30
2022-12-05T19:14:20.822Z,68.28
2022-12-05T19:16:57.869Z,63.60
2022-12-05T19:19:21.506Z,58.92
2022-12-05T19:21:48.930Z,70.05
2022-12-05T19:24:19.018Z,70.62
2022-12-05T19:26:47.694Z,68.30
2022-12-05T19:29:16.141Z,59.98
2022-12-05T19:31:44.706Z,59.23
2022-12-05T19:34:12.696Z,58.60
2022-12-05T19:36:44.123Z,53.75
2022-12-05T19:39:23.559Z,49.27
2022-12-05T19:41:51.762Z,44.20
2022-12-05T19:44:19.389Z,37.05
2022-12-05T19:46:49.126Z,34.95
2022-12-05T19:49:16.977Z,36.63
2022-12-05T19:51:45.914Z,36.63
2022-12-05T19:54:16.827Z,40.00
2022-12-05T19:56:45.075Z,42.13
2022-12-05T19:59:16.842Z,47.55
2022-12-05T20:01:45.095Z,46.42
2022-12-05T20:04:16.956Z,43.35
2022-12-05T20:06:48.174Z,39.90
2022-12-05T20:09:18.993Z,40.52
2022-12-05T20:11:55.244Z,46.18
2022-12-05T20:14:21.080Z,41.92
2022-12-05T20:16:49.740Z,39.18
2022-12-05T20:19:17.630Z,36.65
2022-12-05T20:21:45.172Z,35.52
2022-12-05T20:24:12.719Z,40.90
2022-12-05T20:26:43.805Z,45.25
2022-12-05T20:29:12.026Z,43.35
2022-12-05T20:31:43.448Z,43.60
2022-12-05T20:34:13.128Z,44.77
2022-12-05T20:36:41.271Z,38.90
2022-12-05T20:39:13.349Z,39.33
2022-12-05T20:41:41.245Z,40.63
2022-12-05T20:44:13.435Z,31.35
2022-12-05T20:46:41.567Z,22.37
2022-12-05T20:49:12.095Z,16.93
2022-12-05T20:51:43.771Z,16.15
2022-12-05T20:54:12.718Z,17.42
2022-12-05T20:56:40.894Z,59.33
2022-12-05T20:59:11.652Z,70.60
2022-12-05T21:01:40.603Z,51.25
2022-12-05T21:04:10.338Z,39.73
2022-12-05T21:06:42.328Z,55.05
2022-12-05T21:09:12.867Z,50.17
2022-12-05T21:11:41.619Z,40.75
2022-12-05T21:14:09.219Z,33.90
2022-12-05T21:16:37.223Z,34.65
2022-12-05T21:19:04.859Z,30.62
2022-12-05T21:21:33.541Z,32.88
2022-12-05T21:24:03.437Z,36.63
2022-12-05T21:26:34.205Z,37.85
2022-12-05T21:29:03.736Z,32.58
2022-12-05T21:31:41.763Z,30.17
2022-12-05T21:34:16.654Z,25.92
2022-12-05T21:36:45.021Z,25.00
2022-12-05T21:39:13.650Z,26.82
2022-12-05T21:41:41.424Z,26.70
2022-12-05T21:44:09.296Z,26.93
2022-12-05T21:46:37.103Z,25.68
2022-12-05T21:49:05.158Z,26.20
2022-12-05T21:51:33.045Z,24.20
2022-12-05T21:54:00.739Z,21.95
2022-12-05T21:56:28.933Z,20.77
2022-12-05T21:58:56.628Z,17.40
2022-12-05T22:01:27.128Z,17.85
2022-12-05T22:04:00.322Z,18.85
2022-12-05T22:06:33.857Z,20.68
2022-12-05T22:09:02.447Z,24.02
2022-12-05T22:11:30.651Z,22.17
2022-12-05T22:13:58.514Z,18.50
2022-12-05T22:16:32.361Z,17.82
2022-12-05T22:18:55.528Z,19.35
2022-12-05T22:21:23.507Z,20.05
2022-12-05T22:23:50.925Z,18.70
2022-12-05T22:26:22.492Z,14.38
2022-12-05T22:28:52.673Z,13.78
2022-12-05T22:31:21.612Z,13.03
2022-12-05T22:33:49.599Z,12.28
2022-12-05T22:36:19.180Z,12.03
2022-12-05T22:38:48.059Z,13.40
2022-12-05T22:41:23.593Z,14.10
2022-12-05T22:43:56.159Z,14.13
2022-12-05T22:46:26.089Z,15.07
2022-12-05T22:48:53.910Z,15.70
2022-12-05T22:51:22.883Z,14.93
2022-12-05T22:53:52.084Z,13.65
2022-12-05T22:56:22.720Z,14.00
2022-12-05T22:58:58.136Z,14.68
2022-12-05T23:01:31.096Z,14.65
2022-12-05T23:04:05.309Z,15.93
2022-12-05T23:06:34.977Z,17.52
2022-12-05T23:09:06.271Z,15.32
2022-12-05T23:11:34.428Z,14.47
2022-12-05T23:14:02.806Z,14.35
2022-12-05T23:16:33.070Z,13.75
2022-12-05T23:19:04.169Z,13.88
2022-12-05T23:21:37.116Z,13.90
2022-12-05T23:24:09.490Z,13.30
2022-12-05T23:26:43.671Z,13.55
2022-12-05T23:29:12.785Z,13.60
2022-12-05T23:31:41.454Z,12.60
2022-12-05T23:34:09.589Z,12.68
2022-12-05T23:36:37.789Z,11.90
2022-12-05T23:39:05.392Z,12.10
2022-12-05T23:41:33.681Z,13.30
2022-12-05T23:44:03.101Z,13.20
2022-12-05T23:46:31.239Z,12.65
2022-12-05T23:48:58.926Z,12.65
2022-12-05T23:51:30.667Z,13.10
2022-12-05T23:54:00.952Z,11.63
2022-12-05T23:56:32.400Z,11.18
2022-12-05T23:59:02.038Z,12.03
